Time;durP1;ratioP1;P1;durP2;ratioP2;P2;SDS_P1;SDS_P2;PMS_P1;PMS_P2;Temp;Humidity;BMP_temperature;BMP_pressure;BME280_temperature;BME280_humidity;BME280_pressure;Samples;Min_cycle;Max_cycle;Signal;HPM_P1;HPM_P2
2022/03/22 00:00:05;;;;;;;18.70;13.15;;;;;14.50;102887.00;;;;4990137;28;20298;-77
2022/03/22 00:02:32;;;;;;;19.90;12.55;;;;;14.50;102889.00;;;;4990770;28;20213;-78
2022/03/22 00:05:01;;;;;;;20.40;13.38;;;;;14.50;102891.00;;;;4990192;28;20202;-78
2022/03/22 00:07:28;;;;;;;17.83;12.10;;;;;14.40;102900.00;;;;4989278;28;20221;-78
2022/03/22 00:09:55;;;;;;;20.63;13.77;;;;;14.40;102891.00;;;;4989985;28;20288;-78
2022/03/22 00:12:23;;;;;;;18.50;12.07;;;;;14.40;102889.00;;;;4988406;28;20198;-78
2022/03/22 00:14:50;;;;;;;18.73;13.55;;;;;14.40;102897.00;;;;4988660;28;20313;-78
2022/03/22 00:17:18;;;;;;;22.80;12.70;;;;;14.40;102891.00;;;;4979587;28;20233;-76
2022/03/22 00:19:45;;;;;;;19.42;12.65;;;;;14.30;102895.00;;;;4989707;28;20197;-77
2022/03/22 00:22:14;;;;;;;23.30;13.52;;;;;14.30;102898.00;;;;4988493;28;20214;-76
2022/03/22 00:24:41;;;;;;;19.27;13.35;;;;;14.30;102895.00;;;;4989169;28;20224;-77
2022/03/22 00:27:09;;;;;;;19.33;12.93;;;;;14.30;102902.00;;;;4987894;28;20198;-77
2022/03/22 00:29:36;;;;;;;20.95;14.48;;;;;14.30;102888.00;;;;4988974;28;20206;-77
2022/03/22 00:32:08;;;;;;;19.35;13.48;;;;;14.20;102899.00;;;;4988447;28;20193;-77
2022/03/22 00:34:44;;;;;;;22.55;13.98;;;;;14.20;102899.00;;;;4989688;28;20196;-76
2022/03/22 00:37:14;;;;;;;20.00;13.63;;;;;14.20;102900.00;;;;4982672;28;20589;-77
2022/03/22 00:39:42;;;;;;;22.70;14.88;;;;;14.20;102907.00;;;;4989148;28;20228;-76
2022/03/22 00:42:10;;;;;;;21.05;13.57;;;;;14.10;102908.00;;;;4988936;28;20281;-76
2022/03/22 00:44:38;;;;;;;22.25;13.88;;;;;14.10;102906.00;;;;4989610;28;20255;-77
2022/03/22 00:47:07;;;;;;;20.35;14.00;;;;;14.10;102905.00;;;;4988433;28;20209;-77
2022/03/22 00:49:36;;;;;;;19.30;13.27;;;;;14.10;102905.00;;;;4988981;28;20293;-77
2022/03/22 00:52:07;;;;;;;22.23;13.70;;;;;14.00;102912.00;;;;4993689;28;20197;-77
2022/03/22 00:54:37;;;;;;;19.98;13.27;;;;;14.00;102911.00;;;;4991753;28;20194;-76
2022/03/22 00:57:05;;;;;;;21.23;12.82;;;;;14.00;102906.00;;;;4988878;28;20638;-77
2022/03/22 01:02:17;;;;;;;20.50;13.75;;;;;13.90;102915.00;;;;4991830;28;20212;-77
2022/03/22 01:04:44;;;;;;;22.95;14.75;;;;;13.90;102910.00;;;;4992966;28;20193;-78
2022/03/22 01:07:11;;;;;;;20.50;14.75;;;;;13.90;102906.00;;;;5001118;28;20706;-77
2022/03/22 01:09:40;;;;;;;23.13;15.20;;;;;13.90;102907.00;;;;5004356;28;20193;-77
2022/03/22 01:12:08;;;;;;;20.95;14.18;;;;;13.80;102909.00;;;;4994189;28;20205;-77
2022/03/22 01:14:35;;;;;;;24.23;15.13;;;;;13.80;102909.00;;;;4998112;28;20334;-77
2022/03/22 01:17:03;;;;;;;21.50;14.27;;;;;13.80;102907.00;;;;4993354;28;20193;-77
2022/03/22 01:19:30;;;;;;;22.42;15.00;;;;;13.80;102911.00;;;;4992110;28;20204;-77
2022/03/22 01:21:58;;;;;;;20.88;14.20;;;;;13.80;102910.00;;;;4991904;28;20197;-77
2022/03/22 01:24:26;;;;;;;21.17;13.85;;;;;13.70;102903.00;;;;4991121;28;20204;-77
2022/03/22 01:26:55;;;;;;;19.77;14.23;;;;;13.70;102909.00;;;;4996948;28;20208;-77
2022/03/22 01:29:22;;;;;;;23.08;14.70;;;;;13.70;102911.00;;;;4991125;28;20193;-77
2022/03/22 01:31:50;;;;;;;22.02;15.45;;;;;13.70;102913.00;;;;4992558;28;20675;-77
2022/03/22 01:34:17;;;;;;;23.00;15.57;;;;;13.70;102908.00;;;;4991874;28;20194;-77
2022/03/22 01:36:45;;;;;;;21.67;15.32;;;;;13.60;102907.00;;;;4990757;28;20274;-76
2022/03/22 01:39:12;;;;;;;21.30;14.50;;;;;13.60;102908.00;;;;4985391;28;20221;-77
2022/03/22 01:41:39;;;;;;;22.58;15.18;;;;;13.60;102902.00;;;;4991173;28;20220;-77
2022/03/22 01:44:08;;;;;;;19.42;14.40;;;;;13.60;102900.00;;;;4998578;28;20671;-76
2022/03/22 01:46:37;;;;;;;24.20;14.60;;;;;13.60;102901.00;;;;4991807;28;20201;-76
2022/03/22 01:49:04;;;;;;;22.25;15.18;;;;;13.60;102902.00;;;;4987502;28;20217;-77
2022/03/22 01:51:33;;;;;;;24.88;15.57;;;;;13.50;102902.00;;;;4991625;28;20190;-78
2022/03/22 01:54:01;;;;;;;19.73;13.18;;;;;13.50;102897.00;;;;4991857;28;20612;-77
2022/03/22 01:56:29;;;;;;;22.33;13.70;;;;;13.50;102900.00;;;;4989736;28;20202;-78
2022/03/22 01:58:56;;;;;;;22.50;14.35;;;;;13.50;102900.00;;;;4988615;28;20347;-77
2022/03/22 02:07:02;;;;;;;19.70;11.77;;;;;13.50;102886.00;;;;4957986;28;20638;-77
2022/03/22 02:09:29;;;;;;;16.58;12.18;;;;;13.50;102884.00;;;;4989636;28;20194;-77
2022/03/22 02:11:56;;;;;;;17.77;12.73;;;;;13.50;102886.00;;;;4988681;28;20193;-77
2022/03/22 02:14:23;;;;;;;20.83;11.95;;;;;13.50;102885.00;;;;4988825;28;20193;-78
2022/03/22 02:16:52;;;;;;;20.20;12.13;;;;;13.50;102887.00;;;;4984521;28;20257;-77
2022/03/22 02:19:19;;;;;;;15.80;10.80;;;;;13.50;102880.00;;;;5001372;28;20221;-78
2022/03/22 02:21:51;;;;;;;17.35;12.13;;;;;13.50;102877.00;;;;4991236;28;20204;-77
2022/03/22 02:24:19;;;;;;;18.85;13.00;;;;;13.50;102879.00;;;;4990733;28;20201;-77
2022/03/22 02:26:46;;;;;;;16.63;11.68;;;;;13.50;102877.00;;;;4990650;28;20197;-77
2022/03/22 02:29:14;;;;;;;15.27;10.57;;;;;13.50;102877.00;;;;4989656;28;20205;-77
2022/03/22 02:31:41;;;;;;;15.98;10.95;;;;;13.50;102878.00;;;;4990576;28;20193;-77
2022/03/22 02:34:08;;;;;;;15.77;11.48;;;;;13.50;102877.00;;;;4994753;28;20698;-77
2022/03/22 02:36:36;;;;;;;17.50;11.52;;;;;13.50;102873.00;;;;4998636;28;20193;-76
2022/03/22 02:39:03;;;;;;;15.70;10.63;;;;;13.50;102874.00;;;;4990218;28;20221;-77
2022/03/22 02:41:32;;;;;;;17.27;10.50;;;;;13.50;102882.00;;;;4990288;28;20256;-77
2022/03/22 02:43:59;;;;;;;17.13;11.57;;;;;13.50;102875.00;;;;4989239;28;20197;-77
2022/03/22 02:46:26;;;;;;;14.43;9.95;;;;;13.50;102881.00;;;;4990095;28;20557;-77
2022/03/22 02:48:54;;;;;;;14.80;10.32;;;;;13.50;102890.00;;;;4990208;28;21101;-77
2022/03/22 02:51:25;;;;;;;16.85;10.18;;;;;13.50;102887.00;;;;4997073;28;20197;-77
2022/03/22 02:53:53;;;;;;;15.32;9.55;;;;;13.50;102883.00;;;;5010878;28;20204;-77
2022/03/22 02:56:20;;;;;;;13.45;9.68;;;;;13.60;102885.00;;;;4995137;28;20205;-77
2022/03/22 02:58:49;;;;;;;16.45;11.15;;;;;13.50;102890.00;;;;4989810;28;20316;-77
2022/03/22 03:01:16;;;;;;;16.83;10.68;;;;;13.60;102903.00;;;;4990282;28;20194;-77
2022/03/22 03:03:43;;;;;;;15.88;10.75;;;;;13.60;102899.00;;;;4990275;28;20198;-77
2022/03/22 03:06:12;;;;;;;17.25;11.43;;;;;13.60;102899.00;;;;4989562;28;20212;-77
2022/03/22 03:08:39;;;;;;;15.98;10.27;;;;;13.60;102896.00;;;;4999146;28;20291;-77
2022/03/22 03:11:06;;;;;;;13.05;10.40;;;;;13.60;102896.00;;;;4989369;28;20204;-77
2022/03/22 03:16:16;;;;;;;15.43;10.27;;;;;13.60;102891.00;;;;4988985;28;20225;-78
2022/03/22 03:18:43;;;;;;;14.27;9.82;;;;;13.60;102895.00;;;;4989543;28;20229;-77
2022/03/22 03:21:10;;;;;;;14.30;10.30;;;;;13.60;102891.00;;;;4987173;28;20201;-77
2022/03/22 03:23:38;;;;;;;23.92;10.80;;;;;13.60;102901.00;;;;4999668;28;20198;-78
2022/03/22 03:26:06;;;;;;;16.52;11.00;;;;;13.60;102897.00;;;;4990421;28;20212;-77
2022/03/22 03:28:33;;;;;;;17.17;10.57;;;;;13.60;102904.00;;;;4989767;28;20714;-77
2022/03/22 03:31:00;;;;;;;17.08;10.27;;;;;13.60;102891.00;;;;4988679;28;20214;-77
2022/03/22 03:33:29;;;;;;;17.58;11.27;;;;;13.60;102899.00;;;;4978408;28;20224;-77
2022/03/22 03:35:56;;;;;;;13.85;10.25;;;;;13.60;102904.00;;;;4989953;28;20257;-77
2022/03/22 03:38:24;;;;;;;16.05;10.02;;;;;13.60;102904.00;;;;4989150;28;20308;-78
2022/03/22 03:43:36;;;;;;;16.80;10.85;;;;;13.60;102907.00;;;;4989724;28;20766;-77
2022/03/22 03:48:49;;;;;;;17.15;9.75;;;;;13.60;102905.00;;;;4988195;28;20204;-78
2022/03/22 03:51:16;;;;;;;13.25;9.65;;;;;13.60;102899.00;;;;4989092;28;20538;-77
2022/03/22 03:53:44;;;;;;;15.30;10.32;;;;;13.60;102906.00;;;;4989707;28;20197;-77
2022/03/22 03:56:11;;;;;;;16.20;10.75;;;;;13.60;102899.00;;;;4988386;28;20201;-77
2022/03/22 03:58:39;;;;;;;13.68;9.68;;;;;13.60;102905.00;;;;4988498;28;20362;-77
2022/03/22 04:01:06;;;;;;;14.90;10.10;;;;;13.60;102909.00;;;;4999261;28;20555;-77
2022/03/22 04:03:33;;;;;;;12.80;10.15;;;;;13.60;102900.00;;;;4988218;28;20198;-77
2022/03/22 04:06:02;;;;;;;14.32;10.23;;;;;13.60;102904.00;;;;4988680;28;20280;-77
2022/03/22 04:08:29;;;;;;;15.35;9.27;;;;;13.60;102903.00;;;;4987976;28;20276;-77
2022/03/22 04:10:56;;;;;;;15.52;11.07;;;;;13.60;102897.00;;;;4986433;28;20256;-77
2022/03/22 04:13:23;;;;;;;16.05;10.23;;;;;13.60;102905.00;;;;4987139;28;20638;-77
2022/03/22 04:15:52;;;;;;;17.00;11.02;;;;;13.60;102904.00;;;;4986831;28;20240;-77
2022/03/22 04:18:19;;;;;;;15.45;10.73;;;;;13.60;102911.00;;;;4998096;28;20209;-77
2022/03/22 04:20:49;;;;;;;15.52;10.70;;;;;13.60;102916.00;;;;4988653;28;20798;-77
2022/03/22 04:23:18;;;;;;;15.50;10.35;;;;;13.60;102920.00;;;;4988783;28;20226;-77
2022/03/22 04:25:45;;;;;;;15.32;10.18;;;;;13.60;102915.00;;;;4988289;28;20205;-77
2022/03/22 04:33:41;;;;;;;14.30;9.63;;;;;13.50;102917.00;;;;4998290;28;20850;-77
2022/03/22 04:36:12;;;;;;;14.25;10.50;;;;;13.50;102921.00;;;;4990005;28;20197;-77
2022/03/22 04:38:40;;;;;;;12.32;9.43;;;;;13.50;102921.00;;;;4992821;28;20213;-76
2022/03/22 04:41:08;;;;;;;16.67;10.55;;;;;13.50;102918.00;;;;4992958;28;20197;-77
2022/03/22 04:43:36;;;;;;;15.98;10.48;;;;;13.50;102919.00;;;;4991937;28;20649;-77
2022/03/22 04:46:03;;;;;;;15.65;9.77;;;;;13.50;102918.00;;;;4992750;28;20672;-77
2022/03/22 04:48:30;;;;;;;15.15;10.18;;;;;13.50;102921.00;;;;4992491;28;20205;-77
2022/03/22 04:59:10;;;;;;;11.50;8.73;;;;;13.50;102916.00;;;;4990843;28;20279;-78
2022/03/22 05:01:37;;;;;;;17.73;10.63;;;;;13.50;102919.00;;;;4990533;28;20200;-77
2022/03/22 05:04:05;;;;;;;13.82;9.68;;;;;13.50;102925.00;;;;4991452;28;20194;-77
2022/03/22 05:06:37;;;;;;;16.20;11.57;;;;;13.50;102926.00;;;;4992169;28;20217;-77
2022/03/22 05:09:06;;;;;;;14.95;10.38;;;;;13.50;102923.00;;;;4991871;28;20549;-78
2022/03/22 05:11:34;;;;;;;16.02;10.25;;;;;13.50;102924.00;;;;4987508;28;20202;-78
2022/03/22 05:14:02;;;;;;;15.20;10.40;;;;;13.50;102926.00;;;;4991294;28;20194;-77
2022/03/22 05:16:30;;;;;;;16.67;10.75;;;;;13.50;102923.00;;;;4991136;28;20232;-77
2022/03/22 05:18:59;;;;;;;12.90;9.52;;;;;13.50;102934.00;;;;4990422;28;20381;-78
2022/03/22 05:21:28;;;;;;;15.77;10.93;;;;;13.50;102937.00;;;;4991411;28;20198;-77
2022/03/22 05:23:55;;;;;;;13.63;10.07;;;;;13.50;102933.00;;;;4994460;28;20212;-78
2022/03/22 05:26:25;;;;;;;14.82;10.02;;;;;13.40;102941.00;;;;4988473;28;20214;-78
2022/03/22 05:28:53;;;;;;;12.98;9.57;;;;;13.40;102951.00;;;;4989781;28;20210;-77
2022/03/22 05:31:21;;;;;;;17.15;9.60;;;;;13.50;102946.00;;;;4989526;28;20197;-78
2022/03/22 05:33:52;;;;;;;13.73;10.68;;;;;13.40;102947.00;;;;4989369;28;20193;-78
2022/03/22 05:36:19;;;;;;;15.93;9.48;;;;;13.40;102948.00;;;;4989875;28;20300;-78
2022/03/22 05:38:46;;;;;;;14.07;9.38;;;;;13.40;102948.00;;;;4988655;28;20214;-78
2022/03/22 05:41:14;;;;;;;14.13;9.60;;;;;13.40;102953.00;;;;4992801;28;20204;-78
2022/03/22 05:43:46;;;;;;;13.10;9.75;;;;;13.40;102954.00;;;;4988969;28;20264;-77
2022/03/22 05:46:16;;;;;;;13.95;10.07;;;;;13.40;102955.00;;;;4986909;28;20208;-77
2022/03/22 05:48:44;;;;;;;16.35;10.77;;;;;13.40;102957.00;;;;4986793;28;20237;-78
2022/03/22 05:51:11;;;;;;;13.73;10.05;;;;;13.40;102957.00;;;;4985602;28;20198;-79
2022/03/22 05:53:39;;;;;;;15.05;10.07;;;;;13.40;102952.00;;;;4989196;28;20602;-78
2022/03/22 05:56:06;;;;;;;16.00;9.95;;;;;13.40;102959.00;;;;4985619;28;20206;-78
2022/03/22 05:58:34;;;;;;;15.27;10.50;;;;;13.40;102956.00;;;;4991805;28;20273;-78
2022/03/22 06:01:02;;;;;;;13.40;10.05;;;;;13.40;102963.00;;;;4987744;28;20578;-78
2022/03/22 06:03:30;;;;;;;18.00;10.80;;;;;13.50;102968.00;;;;4991001;28;20213;-77
2022/03/22 06:05:57;;;;;;;17.20;11.05;;;;;13.50;102969.00;;;;4990017;28;20277;-78
2022/03/22 06:08:25;;;;;;;14.48;10.40;;;;;13.50;102965.00;;;;4991673;28;20210;-78
2022/03/22 06:10:52;;;;;;;18.70;10.38;;;;;13.50;102968.00;;;;4994755;28;20895;-78
2022/03/22 06:13:19;;;;;;;14.55;10.05;;;;;13.50;102970.00;;;;4991250;28;20201;-78
2022/03/22 06:15:47;;;;;;;14.93;9.93;;;;;13.50;102970.00;;;;4991826;28;20233;-78
2022/03/22 06:18:15;;;;;;;15.63;9.93;;;;;13.50;102970.00;;;;4992083;28;20259;-77
2022/03/22 06:20:43;;;;;;;14.18;9.75;;;;;13.60;102980.00;;;;4989905;28;20217;-75
2022/03/22 06:23:12;;;;;;;13.52;10.45;;;;;13.60;102974.00;;;;4989486;28;20202;-76
2022/03/22 06:25:41;;;;;;;17.85;10.70;;;;;13.60;102971.00;;;;4990715;28;20269;-77
2022/03/22 06:28:09;;;;;;;17.63;11.45;;;;;13.60;102980.00;;;;4993721;28;20194;-76
2022/03/22 06:30:37;;;;;;;13.95;10.30;;;;;13.60;102984.00;;;;4990803;28;20205;-77
2022/03/22 06:33:10;;;;;;;15.10;10.02;;;;;13.70;102976.00;;;;4989692;28;20248;-77
2022/03/22 06:35:39;;;;;;;16.52;11.45;;;;;13.70;102977.00;;;;4986764;28;20208;-79
2022/03/22 06:38:07;;;;;;;15.45;9.75;;;;;13.70;102979.00;;;;4990422;28;20231;-77
2022/03/22 06:40:37;;;;;;;13.50;10.10;;;;;13.80;102979.00;;;;4990343;28;20229;-78
2022/03/22 06:43:07;;;;;;;16.25;9.95;;;;;13.80;102981.00;;;;4991038;28;20288;-76
2022/03/22 06:45:34;;;;;;;19.70;10.40;;;;;13.90;102987.00;;;;4991158;28;20201;-76
2022/03/22 06:48:02;;;;;;;14.57;10.40;;;;;13.90;102983.00;;;;4990199;28;20200;-77
2022/03/22 06:50:30;;;;;;;18.05;10.75;;;;;14.00;102984.00;;;;5004496;28;20595;-77
2022/03/22 06:52:59;;;;;;;12.65;9.65;;;;;14.00;102992.00;;;;4990544;28;20577;-77
2022/03/22 06:55:26;;;;;;;16.23;11.38;;;;;14.10;102987.00;;;;4990374;28;20201;-77
2022/03/22 06:57:54;;;;;;;14.73;10.55;;;;;14.20;102991.00;;;;4990226;28;20205;-75
2022/03/22 07:00:21;;;;;;;14.27;10.93;;;;;14.20;102993.00;;;;4990418;28;20288;-77
2022/03/22 07:02:49;;;;;;;14.90;11.00;;;;;14.30;102994.00;;;;4991439;28;21009;-78
2022/03/22 07:05:17;;;;;;;15.40;10.48;;;;;14.40;102991.00;;;;4990602;28;20699;-77
2022/03/22 07:07:45;;;;;;;17.00;11.15;;;;;14.40;103000.00;;;;5000356;28;20226;-77
2022/03/22 07:10:16;;;;;;;16.30;11.88;;;;;14.50;102994.00;;;;4989718;28;20583;-77
2022/03/22 07:12:52;;;;;;;16.35;10.05;;;;;14.60;102998.00;;;;4991095;28;20237;-77
2022/03/22 07:15:21;;;;;;;15.43;11.57;;;;;14.70;103000.00;;;;4991587;28;20320;-77
2022/03/22 07:17:48;;;;;;;16.63;11.80;;;;;14.80;103005.00;;;;4990236;28;20202;-78
2022/03/22 07:20:15;;;;;;;15.73;11.30;;;;;14.80;103004.00;;;;4989159;28;20229;-77
2022/03/22 07:22:43;;;;;;;15.73;10.63;;;;;14.90;103014.00;;;;4991605;28;20240;-78
2022/03/22 07:25:11;;;;;;;14.85;10.80;;;;;15.00;103011.00;;;;5009712;28;20296;-78
2022/03/22 07:27:39;;;;;;;15.32;11.05;;;;;15.00;103013.00;;;;5009872;28;20193;-77
2022/03/22 07:30:10;;;;;;;17.02;11.85;;;;;15.10;103013.00;;;;4995668;28;20568;-78
2022/03/22 07:32:37;;;;;;;15.00;11.48;;;;;15.20;103015.00;;;;4990774;28;20232;-78
2022/03/22 07:35:07;;;;;;;16.13;11.45;;;;;15.30;103017.00;;;;4990495;28;20194;-78
2022/03/22 07:37:34;;;;;;;16.90;11.63;;;;;15.40;103007.00;;;;4989770;28;20205;-77
2022/03/22 07:40:03;;;;;;;16.23;11.50;;;;;15.40;103017.00;;;;4996260;28;20260;-78
2022/03/22 07:42:31;;;;;;;17.60;12.35;;;;;15.50;103021.00;;;;5010437;28;20296;-77
2022/03/22 07:45:01;;;;;;;17.13;11.38;;;;;15.60;103023.00;;;;5012807;28;20880;-77
2022/03/22 07:47:29;;;;;;;15.13;10.77;;;;;15.70;103011.00;;;;5010389;28;20211;-78
2022/03/22 07:55:23;;;;;;;15.82;10.77;;;;;15.90;103023.00;;;;4990675;28;20691;-77
2022/03/22 07:57:50;;;;;;;20.75;11.52;;;;;16.00;103018.00;;;;4999824;28;20208;-77
2022/03/22 08:00:20;;;;;;;18.33;12.48;;;;;16.10;103027.00;;;;5002790;28;20221;-77
2022/03/22 08:02:55;;;;;;;19.85;13.05;;;;;16.10;103029.00;;;;4999559;28;20285;-77
2022/03/22 08:05:23;;;;;;;23.23;13.18;;;;;16.20;103034.00;;;;4993903;28;20193;-76
2022/03/22 08:07:50;;;;;;;16.48;12.05;;;;;16.30;103033.00;;;;4989131;28;20667;-77
2022/03/22 08:10:18;;;;;;;17.98;12.30;;;;;16.40;103029.00;;;;4995285;28;20579;-77
2022/03/22 08:12:46;;;;;;;17.08;12.27;;;;;16.50;103035.00;;;;5000329;28;20206;-77
2022/03/22 08:15:13;;;;;;;15.35;12.15;;;;;16.60;103037.00;;;;5002951;28;20264;-75
2022/03/22 08:17:43;;;;;;;19.27;12.15;;;;;16.70;103030.00;;;;5006466;28;20668;-77
2022/03/22 08:20:12;;;;;;;17.90;12.35;;;;;16.70;103036.00;;;;4988787;28;20225;-77
2022/03/22 08:22:50;;;;;;;15.70;12.40;;;;;16.80;103038.00;;;;4989256;28;20190;-75
2022/03/22 08:25:18;;;;;;;16.73;12.18;;;;;16.90;103034.00;;;;4991963;28;20595;-75
2022/03/22 08:27:46;;;;;;;16.25;11.60;;;;;17.00;103037.00;;;;4989514;28;20225;-75
2022/03/22 08:30:18;;;;;;;15.65;11.85;;;;;17.10;103045.00;;;;4988399;28;20656;-75
2022/03/22 08:32:46;;;;;;;18.10;13.07;;;;;17.10;103042.00;;;;4998039;28;20201;-75
2022/03/22 08:35:14;;;;;;;17.92;12.38;;;;;17.20;103036.00;;;;4987743;28;20208;-75
2022/03/22 08:37:41;;;;;;;19.45;12.23;;;;;17.40;103036.00;;;;4989700;28;20197;-75
2022/03/22 08:40:09;;;;;;;17.63;11.40;;;;;17.40;103038.00;;;;4988620;28;20229;-75
2022/03/22 08:42:38;;;;;;;17.25;11.95;;;;;17.50;103034.00;;;;4989233;28;20606;-76
2022/03/22 08:45:07;;;;;;;20.38;11.68;;;;;17.60;103043.00;;;;4988649;28;20280;-76
2022/03/22 08:47:35;;;;;;;17.75;12.10;;;;;17.70;103041.00;;;;4989892;28;20194;-75
2022/03/22 08:50:05;;;;;;;15.43;11.63;;;;;17.80;103043.00;;;;4986654;28;20619;-75
2022/03/22 08:52:32;;;;;;;16.05;11.77;;;;;17.90;103047.00;;;;4981944;28;20280;-76
2022/03/22 08:55:00;;;;;;;16.00;11.75;;;;;18.00;103040.00;;;;4988326;28;20201;-76
2022/03/22 08:57:27;;;;;;;17.17;12.48;;;;;18.10;103045.00;;;;4989950;28;20296;-76
2022/03/22 08:59:55;;;;;;;16.30;11.30;;;;;18.20;103045.00;;;;4989893;28;20218;-76
2022/03/22 09:02:22;;;;;;;16.48;11.85;;;;;18.30;103053.00;;;;4989779;28;20197;-76
2022/03/22 09:07:35;;;;;;;16.10;12.27;;;;;18.40;103047.00;;;;4998628;28;20221;-76
2022/03/22 09:10:03;;;;;;;20.88;13.25;;;;;18.50;103047.00;;;;4993827;28;20213;-77
2022/03/22 09:12:31;;;;;;;18.42;12.20;;;;;18.60;103047.00;;;;5003932;28;20288;-77
2022/03/22 09:14:58;;;;;;;16.75;12.30;;;;;18.70;103050.00;;;;5006617;28;20233;-76
2022/03/22 09:17:26;;;;;;;17.27;12.48;;;;;18.80;103051.00;;;;4995652;28;20204;-77
2022/03/22 09:19:53;;;;;;;15.82;11.30;;;;;18.80;103049.00;;;;4998515;28;20221;-77
2022/03/22 09:22:20;;;;;;;19.30;12.27;;;;;18.90;103051.00;;;;4997067;28;20193;-76
2022/03/22 09:24:49;;;;;;;16.60;12.90;;;;;19.00;103047.00;;;;5002789;28;20201;-76
2022/03/22 09:27:16;;;;;;;17.77;11.93;;;;;19.10;103046.00;;;;4991420;28;20205;-76
2022/03/22 09:29:44;;;;;;;17.95;12.82;;;;;19.20;103039.00;;;;4994112;28;20190;-76
2022/03/22 09:32:13;;;;;;;18.13;13.15;;;;;19.30;103045.00;;;;4991941;28;20751;-76
2022/03/22 09:34:40;;;;;;;22.13;13.07;;;;;19.40;103049.00;;;;4999532;28;20209;-76
2022/03/22 09:37:08;;;;;;;19.58;12.25;;;;;19.60;103046.00;;;;4995734;28;20217;-77
2022/03/22 09:39:35;;;;;;;16.20;11.43;;;;;19.70;103041.00;;;;4992988;28;20209;-77
2022/03/22 09:42:05;;;;;;;16.67;12.95;;;;;19.80;103037.00;;;;4996565;28;20201;-77
2022/03/22 09:44:32;;;;;;;15.93;12.82;;;;;19.90;103043.00;;;;4995167;28;20190;-77
2022/03/22 09:47:00;;;;;;;18.63;12.52;;;;;20.00;103037.00;;;;4993908;28;20209;-76
2022/03/22 09:49:29;;;;;;;17.08;12.32;;;;;20.10;103042.00;;;;4992179;28;20194;-76
2022/03/22 09:51:56;;;;;;;21.23;13.57;;;;;20.20;103041.00;;;;4991461;28;20226;-76
2022/03/22 09:54:24;;;;;;;18.42;13.25;;;;;20.40;103041.00;;;;4991551;28;20700;-76
2022/03/22 09:56:53;;;;;;;16.58;12.05;;;;;20.50;103044.00;;;;5004920;28;20209;-76
2022/03/22 09:59:21;;;;;;;17.63;13.00;;;;;20.60;103037.00;;;;4997213;28;20649;-76
2022/03/22 10:01:48;;;;;;;17.48;12.85;;;;;20.70;103043.00;;;;5001377;28;20206;-76
2022/03/22 10:04:17;;;;;;;18.38;13.63;;;;;20.80;103040.00;;;;4990323;28;20661;-76
2022/03/22 10:07:05;;;;;;;19.67;13.23;;;;;20.90;103035.00;;;;4991128;28;20225;-76
2022/03/22 10:09:36;;;;;;;16.70;13.52;;;;;21.10;103045.00;;;;4994363;28;20205;-76
2022/03/22 10:12:04;;;;;;;19.90;12.88;;;;;21.20;103037.00;;;;4991525;28;20674;-76
2022/03/22 10:14:37;;;;;;;19.27;13.07;;;;;21.30;103039.00;;;;4998652;28;20225;-76
2022/03/22 10:17:13;;;;;;;16.10;11.77;;;;;21.40;103034.00;;;;4991429;28;20680;-76
2022/03/22 10:19:45;;;;;;;17.17;11.68;;;;;21.60;103035.00;;;;4991083;28;20660;-76
2022/03/22 10:22:14;;;;;;;17.85;12.50;;;;;21.70;103031.00;;;;4988605;28;20198;-76
2022/03/22 10:24:46;;;;;;;16.50;12.73;;;;;21.80;103032.00;;;;5002825;28;20669;-76
2022/03/22 10:27:24;;;;;;;14.20;12.43;;;;;21.90;103031.00;;;;4991554;28;20652;-76
2022/03/22 10:29:53;;;;;;;18.35;11.77;;;;;22.10;103027.00;;;;4991474;28;20194;-76
2022/03/22 10:32:32;;;;;;;15.77;12.02;;;;;22.20;103030.00;;;;4989759;28;20205;-75
2022/03/22 10:35:12;;;;;;;15.90;12.27;;;;;22.40;103032.00;;;;4987479;28;20201;-76
2022/03/22 10:37:42;;;;;;;16.85;12.13;;;;;22.50;103030.00;;;;4991297;28;22351;-76
2022/03/22 10:40:22;;;;;;;16.30;11.88;;;;;22.60;103030.00;;;;4992119;28;20225;-76
2022/03/22 10:42:50;;;;;;;19.77;12.75;;;;;22.80;103039.00;;;;4990058;28;20787;-76
2022/03/22 10:45:19;;;;;;;16.58;11.40;;;;;22.90;103035.00;;;;4989511;28;20205;-76
2022/03/22 10:47:47;;;;;;;14.27;11.27;;;;;23.10;103032.00;;;;4993650;28;20213;-76
2022/03/22 10:50:14;;;;;;;15.65;11.65;;;;;23.20;103035.00;;;;4989232;28;20228;-76
2022/03/22 10:52:49;;;;;;;16.60;12.20;;;;;23.30;103032.00;;;;4991733;28;20193;-75
2022/03/22 10:55:19;;;;;;;14.65;10.45;;;;;23.50;103024.00;;;;4992027;28;20212;-75
2022/03/22 10:57:52;;;;;;;16.00;11.52;;;;;23.60;103025.00;;;;4992369;28;20200;-76
2022/03/22 11:00:23;;;;;;;16.02;11.90;;;;;23.70;103036.00;;;;4993912;28;20225;-75
2022/03/22 11:02:53;;;;;;;14.20;11.55;;;;;23.90;103026.00;;;;4994011;28;20205;-75
2022/03/22 11:05:22;;;;;;;14.35;10.77;;;;;24.00;103026.00;;;;4991922;28;20200;-76
2022/03/22 11:07:51;;;;;;;19.42;12.23;;;;;24.10;103030.00;;;;4994688;28;20711;-76
2022/03/22 11:10:25;;;;;;;16.17;10.95;;;;;24.20;103020.00;;;;4990599;28;20206;-76
2022/03/22 11:12:52;;;;;;;13.32;9.80;;;;;24.30;103027.00;;;;4993262;28;20198;-76
2022/03/22 11:15:21;;;;;;;15.48;10.45;;;;;24.50;103024.00;;;;4988927;28;20230;-75
2022/03/22 11:17:52;;;;;;;15.35;10.13;;;;;24.60;103013.00;;;;4990388;28;20206;-76
2022/03/22 11:20:22;;;;;;;15.13;11.07;;;;;24.70;103026.00;;;;4992274;28;20289;-76
2022/03/22 11:22:52;;;;;;;12.88;9.57;;;;;24.80;103015.00;;;;4994082;28;20189;-76
2022/03/22 11:25:20;;;;;;;14.70;9.40;;;;;24.90;103013.00;;;;4988046;28;20208;-74
2022/03/22 11:27:58;;;;;;;14.48;10.23;;;;;24.90;103014.00;;;;4989134;28;20337;-75
2022/03/22 11:30:29;;;;;;;11.40;8.55;;;;;25.00;103014.00;;;;4990388;28;20201;-77
2022/03/22 11:35:47;;;;;;;14.20;9.23;;;;;25.20;103021.00;;;;4989028;28;20568;-75
2022/03/22 11:38:36;;;;;;;15.02;9.32;;;;;25.20;103022.00;;;;4990367;28;20202;-74
2022/03/22 11:43:49;;;;;;;10.95;8.38;;;;;25.50;103014.00;;;;4990196;28;20209;-75
2022/03/22 11:46:16;;;;;;;12.00;9.00;;;;;25.50;103005.00;;;;4988746;28;20206;-75
2022/03/22 11:48:44;;;;;;;9.98;7.38;;;;;25.60;103004.00;;;;4988127;28;20209;-76
2022/03/22 11:51:11;;;;;;;12.43;8.63;;;;;25.70;103005.00;;;;4988869;28;20686;-75
2022/03/22 11:53:46;;;;;;;10.60;8.30;;;;;25.70;103001.00;;;;4988492;28;20204;-75
2022/03/22 11:56:13;;;;;;;12.38;8.15;;;;;25.80;103000.00;;;;4979429;28;20202;-76
2022/03/22 11:58:49;;;;;;;10.60;7.85;;;;;25.80;102993.00;;;;4988295;28;20288;-75
2022/03/22 12:01:18;;;;;;;9.73;6.88;;;;;25.90;102995.00;;;;4988550;28;20809;-76
2022/03/22 12:03:51;;;;;;;11.77;6.03;;;;;25.90;103000.00;;;;4988476;28;20212;-75
2022/03/22 12:06:19;;;;;;;10.40;7.15;;;;;26.00;102998.00;;;;4987711;28;20224;-75
2022/03/22 12:08:48;;;;;;;11.93;7.38;;;;;26.10;103006.00;;;;4987860;28;20221;-75
2022/03/22 12:11:16;;;;;;;12.65;6.38;;;;;26.10;103003.00;;;;4988255;28;20214;-75
2022/03/22 12:13:49;;;;;;;8.13;5.72;;;;;26.10;103000.00;;;;4990157;28;20716;-76
2022/03/22 12:16:16;;;;;;;7.95;6.07;;;;;26.20;102991.00;;;;4973325;28;20236;-76
2022/03/22 12:18:44;;;;;;;7.75;4.93;;;;;26.30;103000.00;;;;4988064;28;20197;-75
2022/03/22 12:21:18;;;;;;;9.85;5.80;;;;;26.30;102986.00;;;;4981688;28;20222;-75
2022/03/22 12:23:47;;;;;;;9.93;6.68;;;;;26.40;102994.00;;;;4978032;28;21002;-75
2022/03/22 12:26:15;;;;;;;9.43;5.82;;;;;26.40;102988.00;;;;4987996;28;20334;-75
2022/03/22 12:28:49;;;;;;;10.15;6.80;;;;;26.40;102983.00;;;;4989674;28;20260;-75
2022/03/22 12:31:20;;;;;;;12.57;6.70;;;;;26.60;102983.00;;;;4994768;28;20297;-75
2022/03/22 12:33:51;;;;;;;9.23;6.95;;;;;26.60;102982.00;;;;4988150;28;20202;-75
2022/03/22 12:36:20;;;;;;;11.57;8.32;;;;;26.70;102980.00;;;;4987752;28;21009;-76
2022/03/22 12:38:49;;;;;;;10.07;7.38;;;;;26.70;102975.00;;;;4978604;28;20237;-75
2022/03/22 12:41:17;;;;;;;12.95;7.80;;;;;26.80;102978.00;;;;4987932;28;20287;-76